Vargsundvaering — LK2234 — position and weather

sailwx.info

Track history (hours):
 
Tides and Currents Weather Stations Pressure Air Temp Water Temp Dewpoint Dewpoint Depression Visibility Wind Speed Wind Dir Waves Ship Positions

Vargsundvaering

Last reported at 2017-Nov-16 09:05 UTC. Time now 2017-Dec-14 14:54 UTC.
Position N 70°27' E 021°35'.
Warning: this ship's position is 28 days out of date.

Length 15 m.

Type: Fishing. MMSI: 257117920.

Date/timePositionNaut miles runAvg speedWind from/ knotsBaromVisibWave heightAir tempDewpointWater temp
2017-Nov-16 09:05N 70°27' E 021°35'1 6.4
2017-Nov-16 09:00N 70°28' E 021°37'1 1.7
2017-Nov-16 08:30N 70°27' E 021°37'4 7.4
2017-Nov-16 07:59N 70°25' E 021°46'4 7.6
2017-Nov-16 07:30N 70°23' E 021°55'4 7.7
2017-Nov-16 07:00N 70°21' E 022°05'4 7.4
2017-Nov-16 06:30N 70°19' E 022°14'4 7.7
2017-Nov-16 06:00N 70°17' E 022°24'4 7.8
2017-Nov-16 05:30N 70°15' E 022°35'4 8.0
2017-Nov-16 05:00N 70°14' E 022°46'4 7.9
2017-Nov-16 04:30N 70°14' E 022°58'4 7.7
2017-Nov-16 04:00N 70°15' E 023°09'4 7.8
2017-Nov-16 03:29N 70°16' E 023°20'1 3.0
2017-Nov-16 03:00N 70°16' E 023°24'0 0.0
2017-Nov-16 02:27N 70°16' E 023°24'0 0.0
2017-Nov-16 02:00N 70°16' E 023°24'0 0.0
2017-Nov-16 01:27N 70°16' E 023°24'0 0.0
2017-Nov-16 01:00N 70°16' E 023°24'0 0.0
2017-Nov-16 00:30N 70°16' E 023°24'0 0.0
2017-Nov-16 00:00N 70°16' E 023°24'0 0.0
2017-Nov-15 23:30N 70°16' E 023°24'0 0.0
2017-Nov-15 22:57N 70°16' E 023°24'0 0.0
2017-Nov-15 22:27N 70°16' E 023°24'0 0.0
2017-Nov-15 22:00N 70°16' E 023°24'0 0.0
2017-Nov-15 21:30N 70°16' E 023°24'0 0.0
2017-Nov-15 21:00N 70°16' E 023°24'0 0.0
2017-Nov-15 20:30N 70°16' E 023°24'0 0.0
2017-Nov-15 20:00N 70°16' E 023°24'0 0.0
2017-Nov-15 19:30N 70°16' E 023°24'0 0.0
2017-Nov-15 19:00N 70°16' E 023°24'0 0.0
2017-Nov-15 18:30N 70°16' E 023°24'0 0.0
2017-Nov-15 18:00N 70°16' E 023°24'0 0.0
2017-Nov-15 17:30N 70°16' E 023°24'0 0.0
2017-Nov-15 17:00N 70°16' E 023°24'0 0.0
2017-Nov-15 16:30N 70°16' E 023°24'0 0.0
2017-Nov-15 16:00N 70°16' E 023°24'0 0.0
2017-Nov-15 15:27N 70°16' E 023°24'0 0.0
2017-Nov-15 14:57N 70°16' E 023°24'0 0.0
2017-Nov-15 14:30N 70°16' E 023°24'0 0.0
2017-Nov-15 14:00N 70°16' E 023°24'0 0.0
2017-Nov-15 13:30N 70°16' E 023°24'0 0.0
2017-Nov-15 13:00N 70°16' E 023°24'0 0.0
2017-Nov-15 12:30N 70°16' E 023°24'0 0.0
2017-Nov-15 12:00N 70°16' E 023°24'0 0.0
2017-Nov-15 11:27N 70°16' E 023°24'0 0.0
2017-Nov-15 10:57N 70°16' E 023°24'0 0.0
2017-Nov-15 10:30N 70°16' E 023°24'0 0.0
2017-Nov-15 10:00N 70°16' E 023°24'0 0.0
2017-Nov-15 09:30N 70°16' E 023°24'0 0.0
2017-Nov-15 09:00N 70°16' E 023°24'0 0.0
2017-Nov-15 08:30N 70°16' E 023°24'0 0.0
2017-Nov-15 07:57N 70°16' E 023°24'0 0.0
2017-Nov-15 07:30N 70°16' E 023°24'0 0.0
2017-Nov-15 07:00N 70°16' E 023°24'0 0.0
2017-Nov-15 06:30N 70°16' E 023°24'0 0.0
2017-Nov-15 06:00N 70°16' E 023°24'0 0.0
2017-Nov-15 05:30N 70°16' E 023°24'0 0.0
2017-Nov-15 05:00N 70°16' E 023°24'0 0.0
2017-Nov-15 04:30N 70°16' E 023°24'0 0.0
2017-Nov-15 04:00N 70°16' E 023°24'0 0.0
2017-Nov-15 03:30N 70°16' E 023°24'0 0.0
2017-Nov-15 03:00N 70°16' E 023°24'0 0.0
2017-Nov-15 02:30N 70°16' E 023°24'0 0.0
2017-Nov-15 02:00N 70°16' E 023°24'0 0.0
2017-Nov-15 01:30N 70°16' E 023°24'0 0.0
2017-Nov-15 01:00N 70°16' E 023°24'0 0.0
2017-Nov-15 00:30N 70°16' E 023°24'0 0.0
2017-Nov-15 00:00N 70°16' E 023°24'0 0.0
2017-Nov-14 23:30N 70°16' E 023°24'0 0.0
2017-Nov-14 23:00N 70°16' E 023°24'0 0.0
2017-Nov-14 22:30N 70°16' E 023°24'0 0.0
2017-Nov-14 22:00N 70°16' E 023°24'0 0.0
2017-Nov-14 21:27N 70°16' E 023°24'0 0.0
2017-Nov-14 20:57N 70°16' E 023°24'0 0.0
2017-Nov-14 20:30N 70°16' E 023°24'0 0.0
2017-Nov-14 20:00N 70°16' E 023°24'0 0.0
2017-Nov-14 19:30N 70°16' E 023°24'0 0.0
2017-Nov-14 19:00N 70°16' E 023°24'0 0.0
2017-Nov-14 18:30N 70°16' E 023°24'0 0.0
2017-Nov-14 18:00N 70°16' E 023°24'0 0.0
2017-Nov-14 17:30N 70°16' E 023°24'0 0.0
2017-Nov-14 17:00N 70°16' E 023°24'0 0.0
2017-Nov-14 16:24N 70°16' E 023°24'0 0.0
2017-Nov-14 16:00N 70°16' E 023°24'0 0.0
2017-Nov-14 15:30N 70°16' E 023°24'0 0.0
2017-Nov-14 15:00N 70°16' E 023°24'0 0.0
2017-Nov-14 14:30N 70°16' E 023°24'0 0.0
2017-Nov-14 14:00N 70°16' E 023°24'0 0.0
2017-Nov-14 13:30N 70°16' E 023°24'0 0.0
2017-Nov-14 13:00N 70°16' E 023°24'0 0.0
2017-Nov-14 12:30N 70°16' E 023°24'0 0.0
2017-Nov-14 12:00N 70°16' E 023°24'1 1.0
2017-Nov-14 11:30N 70°16' E 023°23'1 1.1
2017-Nov-14 10:59N 70°16' E 023°24'0 0.0
2017-Nov-14 10:29N 70°16' E 023°24'0 0.0
2017-Nov-14 09:59N 70°16' E 023°24'0 0.0
2017-Nov-14 09:29N 70°16' E 023°24'0 0.0
2017-Nov-14 08:59N 70°16' E 023°24'0 0.0
2017-Nov-14 08:29N 70°16' E 023°24'0 0.0
2017-Nov-14 07:59N 70°16' E 023°24'0 0.0
2017-Nov-14 07:29N 70°16' E 023°24'0 0.0
2017-Nov-14 06:59N 70°16' E 023°24'0 0.0
2017-Nov-14 06:29N 70°16' E 023°24'0 0.0
2017-Nov-14 05:59N 70°16' E 023°24'0 0.0
2017-Nov-14 05:29N 70°16' E 023°24'0 0.0
2017-Nov-14 04:59N 70°16' E 023°24'0 0.0
2017-Nov-14 04:29N 70°16' E 023°24'0 0.0
2017-Nov-14 03:59N 70°16' E 023°24'0 0.0
2017-Nov-14 03:29N 70°16' E 023°24'0 0.0
2017-Nov-14 02:59N 70°16' E 023°24'0 0.0
2017-Nov-14 02:29N 70°16' E 023°24'0 0.0
2017-Nov-14 01:59N 70°16' E 023°24'0 0.0
2017-Nov-14 01:29N 70°16' E 023°24'0 0.0
2017-Nov-14 00:59N 70°16' E 023°24'0 0.0
2017-Nov-14 00:29N 70°16' E 023°24'0 0.0
2017-Nov-13 23:59N 70°16' E 023°24'0 0.0
2017-Nov-13 23:29N 70°16' E 023°24'0 0.0
2017-Nov-13 22:59N 70°16' E 023°24'0 0.0
2017-Nov-13 22:28N 70°16' E 023°24'0 0.0
2017-Nov-13 21:58N 70°16' E 023°24'0 0.0
2017-Nov-13 01:58N 70°16' E 023°24'0 0.0
2017-Nov-13 01:28N 70°16' E 023°24'0 0.0
2017-Nov-13 00:58N 70°16' E 023°24'0 0.0
2017-Nov-13 00:28N 70°16' E 023°24'0 0.0
2017-Nov-12 23:58N 70°16' E 023°24'0 0.0
2017-Nov-12 23:28N 70°16' E 023°24'0 0.0
2017-Nov-12 22:58N 70°16' E 023°24'0 0.0
2017-Nov-12 22:28N 70°16' E 023°24'0 0.0
2017-Nov-12 21:58N 70°16' E 023°24'0 0.0
2017-Nov-12 21:28N 70°16' E 023°24'0 0.0
2017-Nov-12 20:58N 70°16' E 023°24'0 0.0
2017-Nov-12 20:28N 70°16' E 023°24'0 0.0
2017-Nov-12 19:58N 70°16' E 023°24'0 0.0
2017-Nov-12 19:28N 70°16' E 023°24'0 0.0
2017-Nov-12 18:58N 70°16' E 023°24'0 0.0
2017-Nov-12 18:28N 70°16' E 023°24'0 0.0
2017-Nov-12 17:58N 70°16' E 023°24'0 0.0
2017-Nov-12 17:28N 70°16' E 023°24'0 0.0
2017-Nov-12 16:58N 70°16' E 023°24'0 0.0
2017-Nov-12 16:28N 70°16' E 023°24'0 0.0
2017-Nov-12 15:58N 70°16' E 023°24'0 0.0
2017-Nov-12 15:28N 70°16' E 023°24'0 0.0
2017-Nov-12 14:58N 70°16' E 023°24'0 0.0
2017-Nov-12 14:28N 70°16' E 023°24'0 0.0
2017-Nov-12 13:58N 70°16' E 023°24'0 0.0
2017-Nov-12 13:28N 70°16' E 023°24'0 0.0
2017-Nov-12 12:58N 70°16' E 023°24'0 0.0
2017-Nov-12 12:28N 70°16' E 023°24'0 0.0
2017-Nov-12 11:58N 70°16' E 023°24'0 0.0
2017-Nov-12 11:28N 70°16' E 023°24'0 0.0
2017-Nov-12 10:58N 70°16' E 023°24'0 0.0
2017-Nov-12 10:29N 70°16' E 023°24'0 0.0
2017-Nov-12 09:59N 70°16' E 023°24'0 0.0
2017-Nov-12 09:29N 70°16' E 023°24'1 1.0
2017-Nov-12 08:58N 70°16' E 023°23'1 1.1
2017-Nov-12 08:28N 70°16' E 023°24'0 0.0
2017-Nov-12 07:58N 70°16' E 023°24'0 0.0
2017-Nov-12 07:28N 70°16' E 023°24'0 0.0
2017-Nov-12 06:58N 70°16' E 023°24'0 0.0
2017-Nov-12 06:28N 70°16' E 023°24'0 0.0
2017-Nov-12 05:58N 70°16' E 023°24'0 0.0
2017-Nov-12 05:28N 70°16' E 023°24'0 0.0
2017-Nov-12 04:58N 70°16' E 023°24'0 0.0
2017-Nov-12 04:28N 70°16' E 023°24'0 0.0
2017-Nov-12 03:58N 70°16' E 023°24'0 0.0
2017-Nov-12 03:28N 70°16' E 023°24'0 0.0
2017-Nov-12 02:58N 70°16' E 023°24'0 0.0
2017-Nov-12 02:28N 70°16' E 023°24'0 0.0
2017-Nov-12 01:58N 70°16' E 023°24'0 0.0
2017-Nov-12 01:28N 70°16' E 023°24'0 0.0
2017-Nov-12 00:58N 70°16' E 023°24'0 0.0
2017-Nov-12 00:28N 70°16' E 023°24'0 0.0
2017-Nov-11 23:58N 70°16' E 023°24'0 0.0
2017-Nov-11 23:28N 70°16' E 023°24'0 0.0
2017-Nov-11 22:58N 70°16' E 023°24'0 0.0
2017-Nov-11 22:27N 70°16' E 023°24'0 0.0
2017-Nov-11 21:59N 70°16' E 023°24'0 0.0
2017-Nov-11 21:29N 70°16' E 023°24'0 0.0
2017-Nov-11 20:58N 70°16' E 023°24'0 0.0
2017-Nov-11 20:28N 70°16' E 023°24'0 0.0
2017-Nov-11 19:59N 70°16' E 023°24'0 0.0
2017-Nov-11 19:29N 70°16' E 023°24'0 0.0
2017-Nov-11 18:58N 70°16' E 023°24'0 0.0
2017-Nov-11 18:28N 70°16' E 023°24'0 0.0
2017-Nov-11 17:58N 70°16' E 023°24'0 0.0
2017-Nov-11 17:28N 70°16' E 023°24'0 0.0
2017-Nov-11 16:58N 70°16' E 023°24'0 0.0
2017-Nov-11 16:28N 70°16' E 023°24'0 0.0
2017-Nov-11 15:59N 70°16' E 023°24'0 0.0
2017-Nov-11 15:28N 70°16' E 023°24'0 0.0
2017-Nov-11 14:58N 70°16' E 023°24'0 0.0
2017-Nov-11 14:29N 70°16' E 023°24'0 0.0
2017-Nov-11 13:59N 70°16' E 023°24'0 0.0
2017-Nov-11 13:28N 70°16' E 023°24'0 0.0
2017-Nov-11 12:58N 70°16' E 023°24'0 0.0
2017-Nov-11 12:28N 70°16' E 023°24'0 0.0
2017-Nov-11 11:59N 70°16' E 023°24'0 0.0
2017-Nov-11 11:29N 70°16' E 023°24'0 0.0
2017-Nov-11 10:58N 70°16' E 023°24'0 0.0
2017-Nov-11 10:29N 70°16' E 023°24'0 0.0
2017-Nov-11 09:59N 70°16' E 023°24'0 0.0
2017-Nov-11 09:28N 70°16' E 023°24'0 0.0
2017-Nov-11 08:58N 70°16' E 023°24'0 0.0
2017-Nov-11 08:28N 70°16' E 023°24'0 0.0
2017-Nov-11 07:58N 70°16' E 023°24'0 0.0
2017-Nov-11 07:28N 70°16' E 023°24'0 0.0
2017-Nov-11 06:58N 70°16' E 023°24'0 0.0
2017-Nov-11 06:28N 70°16' E 023°24'0 0.0
2017-Nov-11 05:58N 70°16' E 023°24'0 0.0
2017-Nov-11 05:28N 70°16' E 023°24'0 0.0
2017-Nov-11 04:58N 70°16' E 023°24'0 0.0
2017-Nov-11 04:28N 70°16' E 023°24'0 0.0
2017-Nov-11 03:58N 70°16' E 023°24'0 0.0
2017-Nov-11 03:28N 70°16' E 023°24'0 0.0
2017-Nov-11 02:58N 70°16' E 023°24'0 0.0
2017-Nov-11 02:28N 70°16' E 023°24'0 0.0
2017-Nov-11 01:58N 70°16' E 023°24'0 0.0
2017-Nov-11 01:28N 70°16' E 023°24'0 0.0
2017-Nov-11 00:58N 70°16' E 023°24'0 0.0
2017-Nov-11 00:28N 70°16' E 023°24'0 0.0
2017-Nov-10 23:58N 70°16' E 023°24'0 0.0
2017-Nov-10 23:28N 70°16' E 023°24'0 0.0
2017-Nov-10 22:58N 70°16' E 023°24'0 0.0
2017-Nov-10 22:28N 70°16' E 023°24'0 0.0
2017-Nov-10 21:56N 70°16' E 023°24'0 0.0
2017-Nov-10 21:29N 70°16' E 023°24'0 0.0
2017-Nov-10 20:59N 70°16' E 023°24'0 0.0
2017-Nov-10 20:26N 70°16' E 023°24'0 0.0
2017-Nov-10 19:59N 70°16' E 023°24'0 0.0
2017-Nov-10 19:26N 70°16' E 023°24'0 0.0
2017-Nov-10 18:56N 70°16' E 023°24'0 0.0
2017-Nov-10 18:26N 70°16' E 023°24'0 0.0
2017-Nov-10 17:59N 70°16' E 023°24'0 0.0
2017-Nov-10 17:26N 70°16' E 023°24'0 0.0
2017-Nov-10 16:56N 70°16' E 023°24'0 0.0
2017-Nov-10 16:29N 70°16' E 023°24'0 0.0
2017-Nov-10 15:59N 70°16' E 023°24'0 0.0
2017-Nov-10 15:26N 70°16' E 023°24'0 0.0
2017-Nov-10 14:59N 70°16' E 023°24'0 0.0
2017-Nov-10 14:29N 70°16' E 023°24'0 0.0
2017-Nov-10 13:56N 70°16' E 023°24'0 0.0
2017-Nov-10 13:26N 70°16' E 023°24'0 0.0
2017-Nov-10 12:56N 70°16' E 023°24'0 0.0
2017-Nov-10 12:29N 70°16' E 023°24'0 0.0
2017-Nov-10 11:59N 70°16' E 023°24'0 0.0
2017-Nov-10 11:29N 70°16' E 023°24'0 0.0
2017-Nov-10 10:56N 70°16' E 023°24'0 0.0
2017-Nov-10 10:26N 70°16' E 023°24'0 0.0
2017-Nov-10 09:59N 70°16' E 023°24'0 0.0
2017-Nov-10 09:26N 70°16' E 023°24'0 0.0
2017-Nov-10 08:59N 70°16' E 023°24'0 0.0
2017-Nov-10 08:29N 70°16' E 023°24'0 0.0
2017-Nov-10 07:56N 70°16' E 023°24'0 0.0
2017-Nov-10 07:29N 70°16' E 023°24'0 0.0
2017-Nov-10 07:00N 70°16' E 023°24'0 0.0
2017-Nov-10 06:30N 70°16' E 023°24'0 0.0
2017-Nov-10 06:00N 70°16' E 023°24'0 0.0
2017-Nov-10 05:30N 70°16' E 023°24'0 0.0
2017-Nov-10 05:00N 70°16' E 023°24'0 0.0
2017-Nov-10 04:27N 70°16' E 023°24'0 0.0
2017-Nov-10 04:00N 70°16' E 023°24'0 0.0
2017-Nov-10 03:30N 70°16' E 023°24'0 0.0
2017-Nov-10 03:00N 70°16' E 023°24'0 0.0
2017-Nov-10 02:30N 70°16' E 023°24'0 0.0
2017-Nov-10 02:00N 70°16' E 023°24'0 0.0
2017-Nov-10 01:30N 70°16' E 023°24'0 0.0
2017-Nov-10 01:00N 70°16' E 023°24'0 0.0
2017-Nov-10 00:30N 70°16' E 023°24'0 0.0
2017-Nov-10 00:00N 70°16' E 023°24'0 0.0
2017-Nov-09 23:30N 70°16' E 023°24'0 0.0
2017-Nov-09 23:00N 70°16' E 023°24'0 0.0
2017-Nov-09 22:30N 70°16' E 023°24'0 0.0
2017-Nov-09 21:58N 70°16' E 023°24'0 0.0
2017-Nov-09 21:22N 70°16' E 023°24'0 0.0
2017-Nov-09 20:58N 70°16' E 023°24'0 0.0
2017-Nov-09 20:28N 70°16' E 023°24'0 0.0
2017-Nov-09 19:58N 70°16' E 023°24'0 0.0
2017-Nov-09 19:28N 70°16' E 023°24'0 0.0
2017-Nov-09 18:58N 70°16' E 023°24'0 0.0
2017-Nov-09 18:28N 70°16' E 023°24'0 0.0
2017-Nov-09 17:58N 70°16' E 023°24'0 0.0
2017-Nov-09 17:28N 70°16' E 023°24'0 0.0
2017-Nov-09 16:58N 70°16' E 023°24'2 4.0
2017-Nov-09 16:30N 70°18' E 023°23'4 7.6
2017-Nov-09 15:59N 70°21' E 023°29'4 7.3
2017-Nov-09 15:30N 70°24' E 023°35'3 6.8
2017-Nov-09 15:00N 70°27' E 023°39'4 7.6
2017-Nov-09 14:30N 70°31' E 023°38'4 7.5
2017-Nov-09 14:00N 70°35' E 023°37'4 7.4
2017-Nov-09 13:30N 70°38' E 023°37'2 4.4
2017-Nov-09 13:00N 70°40' E 023°41'0 0.0
2017-Nov-09 12:30N 70°40' E 023°41'0 0.0
2017-Nov-09 12:00N 70°40' E 023°41'0 0.0
2017-Nov-09 11:30N 70°40' E 023°41'0 0.0
2017-Nov-09 11:00N 70°40' E 023°41'0 0.0
2017-Nov-09 10:30N 70°40' E 023°41'0 0.0
2017-Nov-09 10:00N 70°40' E 023°41'0 0.0
2017-Nov-09 09:30N 70°40' E 023°41'0 0.0
2017-Nov-09 09:00N 70°40' E 023°41'0 0.0
2017-Nov-09 08:30N 70°40' E 023°41'0 0.0
2017-Nov-09 08:00N 70°40' E 023°41'0 0.0
2017-Nov-09 07:30N 70°40' E 023°41'0 0.0
2017-Nov-09 07:00N 70°40' E 023°41'0 0.0
2017-Nov-09 06:30N 70°40' E 023°41'0 0.0
2017-Nov-09 06:00N 70°40' E 023°41'0 0.0
2017-Nov-09 05:30N 70°40' E 023°41'0 0.0
2017-Nov-09 05:00N 70°40' E 023°41'0 0.0
2017-Nov-09 04:30N 70°40' E 023°41'0 0.0
2017-Nov-09 04:00N 70°40' E 023°41'0 0.0
2017-Nov-09 03:30N 70°40' E 023°41'0 0.0
2017-Nov-09 03:00N 70°40' E 023°41'0 0.0
2017-Nov-09 02:30N 70°40' E 023°41'0 0.0
2017-Nov-09 02:00N 70°40' E 023°41'0 0.0
2017-Nov-09 01:30N 70°40' E 023°41'0 0.0
2017-Nov-09 01:00N 70°40' E 023°41'0 0.0
2017-Nov-09 00:30N 70°40' E 023°41'0 0.0
2017-Nov-09 00:00N 70°40' E 023°41'0 0.0
2017-Nov-08 23:30N 70°40' E 023°41'0 0.0
2017-Nov-08 23:00N 70°40' E 023°41'0 0.0
2017-Nov-08 22:30N 70°40' E 023°41'0 0.0
2017-Nov-08 22:00N 70°40' E 023°41'2 3.6
2017-Nov-08 21:30N 70°40' E 023°36'4 7.2
2017-Nov-08 21:00N 70°44' E 023°37'4 8.3
2017-Nov-08 20:29N 70°47' E 023°45'4 8.2
2017-Nov-08 19:59N 70°49' E 023°55'4 8.4
2017-Nov-08 19:29N 70°52' E 024°05'4 8.0
2017-Nov-08 19:00N 70°54' E 024°14'4 7.5
2017-Nov-08 18:30N 70°57' E 024°24'4 7.7
2017-Nov-08 17:59N 70°59' E 024°33'2 4.7
2017-Nov-08 17:30N 70°60' E 024°40'0 0.0
2017-Nov-08 17:00N 70°60' E 024°40'0 0.0
2017-Nov-08 16:30N 70°60' E 024°40'0 0.0
2017-Nov-08 16:00N 70°60' E 024°40'0 0.0
2017-Nov-08 15:30N 70°60' E 024°40'0 0.0
2017-Nov-08 15:00N 70°60' E 024°40'0 0.5
2017-Nov-08 14:30N 70°60' E 024°40'2 4.5
2017-Nov-08 13:59N 70°59' E 024°34'2 3.3
2017-Nov-08 13:30N 70°57' E 024°35'1 1.4
2017-Nov-08 12:59N 70°57' E 024°32'0 0.5
2017-Nov-08 12:30N 70°58' E 024°32'0 0.1
2017-Nov-08 12:00N 70°58' E 024°32'0 0.8
2017-Nov-08 11:30N 70°58' E 024°33'0 0.2
2017-Nov-08 11:00N 70°58' E 024°33'1 1.3
2017-Nov-08 10:29N 70°58' E 024°35'0 0.9
2017-Nov-08 10:00N 70°57' E 024°34'0 0.5
2017-Nov-08 09:30N 70°57' E 024°33'0 0.2
2017-Nov-08 09:00N 70°58' E 024°33'0 0.1
2017-Nov-08 08:30N 70°57' E 024°33'1 1.6
2017-Nov-08 07:58N 70°57' E 024°36'2 3.5
2017-Nov-08 07:30N 70°59' E 024°33'2 4.5
2017-Nov-08 07:00N 70°60' E 024°40'0 0.0
2017-Nov-08 06:30N 70°60' E 024°40'0 0.0
2017-Nov-08 06:00N 70°60' E 024°40'0 0.0
2017-Nov-08 05:30N 70°60' E 024°40'0 0.0
2017-Nov-08 05:00N 70°60' E 024°40'0 0.0
2017-Nov-08 04:30N 70°60' E 024°40'0 0.0
2017-Nov-08 04:00N 70°60' E 024°40'0 0.0
2017-Nov-08 03:30N 70°60' E 024°40'0 0.0
2017-Nov-08 03:00N 70°60' E 024°40'0 0.0
2017-Nov-08 02:27N 70°60' E 024°40'0 0.0
2017-Nov-08 02:00N 70°60' E 024°40'0 0.0
2017-Nov-08 01:30N 70°60' E 024°40'0 0.0
2017-Nov-08 01:00N 70°60' E 024°40'0 0.0
2017-Nov-08 00:30N 70°60' E 024°40'0 0.0
2017-Nov-08 00:00N 70°60' E 024°40'0 0.0
2017-Nov-07 23:30N 70°60' E 024°40'0 0.0
2017-Nov-07 23:00N 70°60' E 024°40'0 0.0
2017-Nov-07 22:30N 70°60' E 024°40'0 0.0
2017-Nov-07 22:00N 70°60' E 024°40'0 0.0
2017-Nov-07 21:30N 70°60' E 024°40'0 0.0
2017-Nov-07 21:00N 70°60' E 024°40'0 0.0
2017-Nov-07 20:30N 70°60' E 024°40'0 0.0
2017-Nov-07 20:00N 70°60' E 024°40'0 0.0
2017-Nov-07 19:30N 70°60' E 024°40'0 0.0
2017-Nov-07 19:00N 70°60' E 024°40'0 0.0
2017-Nov-07 18:30N 70°60' E 024°40'0 0.0
2017-Nov-07 18:00N 70°60' E 024°40'0 0.0
2017-Nov-07 17:30N 70°60' E 024°40'0 0.0
2017-Nov-07 17:00N 70°60' E 024°40'2 3.9
2017-Nov-07 16:30N 70°59' E 024°34'2 3.1
2017-Nov-07 15:59N 70°57' E 024°35'1 1.3
2017-Nov-07 15:29N 70°57' E 024°33'0 0.9
2017-Nov-07 15:00N 70°58' E 024°32'0 0.2
2017-Nov-07 14:30N 70°58' E 024°33'0 0.4
2017-Nov-07 13:59N 70°58' E 024°33'0 0.4
2017-Nov-07 13:30N 70°57' E 024°34'0 0.4
2017-Nov-07 13:00N 70°58' E 024°34'0 0.3
2017-Nov-07 12:28N 70°57' E 024°34'1 1.3
2017-Nov-07 12:00N 70°57' E 024°32'1 1.3
2017-Nov-07 11:30N 70°57' E 024°31'1 1.4
2017-Nov-07 10:59N 70°57' E 024°33'0 0.2
2017-Nov-07 10:30N 70°57' E 024°33'0 0.5
2017-Nov-07 09:59N 70°57' E 024°34'1 2.4
2017-Nov-07 09:30N 70°58' E 024°31'3 6.2
2017-Nov-07 09:00N 70°60' E 024°40'0 0.2
2017-Nov-07 08:28N 70°60' E 024°40'0 0.0
2017-Nov-07 07:58N 70°60' E 024°40'0 0.0
2017-Nov-07 07:28N 70°60' E 024°40'0 0.0
2017-Nov-07 06:58N 70°60' E 024°40'1 2.4
2017-Nov-07 06:30N 70°59' E 024°36'4 8.2
2017-Nov-07 06:00N 70°57' E 024°27'4 8.0
2017-Nov-07 05:30N 70°53' E 024°21'4 8.3
2017-Nov-07 04:59N 70°50' E 024°13'4 8.2
2017-Nov-07 04:30N 70°46' E 024°13'4 8.4
2017-Nov-07 04:00N 70°42' E 024°12'4 7.9
2017-Nov-07 03:30N 70°38' E 024°11'4 7.9
2017-Nov-07 03:00N 70°34' E 024°06'5 8.4
2017-Nov-07 02:21N 70°30' E 023°55'3 9.1
2017-Nov-07 02:00N 70°29' E 023°47'5 9.0
2017-Nov-07 01:29N 70°25' E 023°38'5 9.2
2017-Nov-07 01:00N 70°22' E 023°29'4 8.6
2017-Nov-07 00:29N 70°18' E 023°23'2 3.8
2017-Nov-07 00:00N 70°16' E 023°24'0 0.0
2017-Nov-06 23:30N 70°16' E 023°24'0 0.0
2017-Nov-06 23:00N 70°16' E 023°24'0 0.0
2017-Nov-06 22:30N 70°16' E 023°24'0 0.0
2017-Nov-06 22:00N 70°16' E 023°24'0 0.0
2017-Nov-06 21:30N 70°16' E 023°24'0 0.0
2017-Nov-06 21:00N 70°16' E 023°24'0 0.0
2017-Nov-06 20:30N 70°16' E 023°24'  
Track history (hours):
 
Tides and Currents Weather Stations Pressure Air Temp Water Temp Dewpoint Dewpoint Depression Visibility Wind Speed Wind Dir Waves Ship Positions

Vargsundvaering

Last reported at 2017-Nov-16 09:05 UTC. Time now 2017-Dec-14 14:54 UTC.
Position N 70°27' E 021°35'.
Warning: this ship's position is 28 days out of date.

Length 15 m.

Type: Fishing. MMSI: 257117920.

Date/timePositionNaut miles runAvg speedWind from/ knotsBaromVisibWave heightAir tempDewpointWater temp
2017-Nov-16 09:05N 70°27' E 021°35'1 6.4
2017-Nov-16 09:00N 70°28' E 021°37'1 1.7
2017-Nov-16 08:30N 70°27' E 021°37'4 7.4
2017-Nov-16 07:59N 70°25' E 021°46'4 7.6
2017-Nov-16 07:30N 70°23' E 021°55'4 7.7
2017-Nov-16 07:00N 70°21' E 022°05'4 7.4
2017-Nov-16 06:30N 70°19' E 022°14'4 7.7
2017-Nov-16 06:00N 70°17' E 022°24'4 7.8
2017-Nov-16 05:30N 70°15' E 022°35'4 8.0
2017-Nov-16 05:00N 70°14' E 022°46'4 7.9
2017-Nov-16 04:30N 70°14' E 022°58'4 7.7
2017-Nov-16 04:00N 70°15' E 023°09'4 7.8
2017-Nov-16 03:29N 70°16' E 023°20'1 3.0
2017-Nov-16 03:00N 70°16' E 023°24'0 0.0
2017-Nov-16 02:27N 70°16' E 023°24'0 0.0
2017-Nov-16 02:00N 70°16' E 023°24'0 0.0
2017-Nov-16 01:27N 70°16' E 023°24'0 0.0
2017-Nov-16 01:00N 70°16' E 023°24'0 0.0
2017-Nov-16 00:30N 70°16' E 023°24'0 0.0
2017-Nov-16 00:00N 70°16' E 023°24'0 0.0
2017-Nov-15 23:30N 70°16' E 023°24'0 0.0
2017-Nov-15 22:57N 70°16' E 023°24'0 0.0
2017-Nov-15 22:27N 70°16' E 023°24'0 0.0
2017-Nov-15 22:00N 70°16' E 023°24'0 0.0
2017-Nov-15 21:30N 70°16' E 023°24'0 0.0
2017-Nov-15 21:00N 70°16' E 023°24'0 0.0
2017-Nov-15 20:30N 70°16' E 023°24'0 0.0
2017-Nov-15 20:00N 70°16' E 023°24'0 0.0
2017-Nov-15 19:30N 70°16' E 023°24'0 0.0
2017-Nov-15 19:00N 70°16' E 023°24'0 0.0
2017-Nov-15 18:30N 70°16' E 023°24'0 0.0
2017-Nov-15 18:00N 70°16' E 023°24'0 0.0
2017-Nov-15 17:30N 70°16' E 023°24'0 0.0
2017-Nov-15 17:00N 70°16' E 023°24'0 0.0
2017-Nov-15 16:30N 70°16' E 023°24'0 0.0
2017-Nov-15 16:00N 70°16' E 023°24'0 0.0
2017-Nov-15 15:27N 70°16' E 023°24'0 0.0
2017-Nov-15 14:57N 70°16' E 023°24'0 0.0
2017-Nov-15 14:30N 70°16' E 023°24'0 0.0
2017-Nov-15 14:00N 70°16' E 023°24'0 0.0
2017-Nov-15 13:30N 70°16' E 023°24'0 0.0
2017-Nov-15 13:00N 70°16' E 023°24'0 0.0
2017-Nov-15 12:30N 70°16' E 023°24'0 0.0
2017-Nov-15 12:00N 70°16' E 023°24'0 0.0
2017-Nov-15 11:27N 70°16' E 023°24'0 0.0
2017-Nov-15 10:57N 70°16' E 023°24'0 0.0
2017-Nov-15 10:30N 70°16' E 023°24'0 0.0
2017-Nov-15 10:00N 70°16' E 023°24'0 0.0
2017-Nov-15 09:30N 70°16' E 023°24'0 0.0
2017-Nov-15 09:00N 70°16' E 023°24'0 0.0
2017-Nov-15 08:30N 70°16' E 023°24'0 0.0
2017-Nov-15 07:57N 70°16' E 023°24'0 0.0
2017-Nov-15 07:30N 70°16' E 023°24'0 0.0
2017-Nov-15 07:00N 70°16' E 023°24'0 0.0
2017-Nov-15 06:30N 70°16' E 023°24'0 0.0
2017-Nov-15 06:00N 70°16' E 023°24'0 0.0
2017-Nov-15 05:30N 70°16' E 023°24'0 0.0
2017-Nov-15 05:00N 70°16' E 023°24'0 0.0
2017-Nov-15 04:30N 70°16' E 023°24'0 0.0
2017-Nov-15 04:00N 70°16' E 023°24'0 0.0
2017-Nov-15 03:30N 70°16' E 023°24'0 0.0
2017-Nov-15 03:00N 70°16' E 023°24'0 0.0
2017-Nov-15 02:30N 70°16' E 023°24'0 0.0
2017-Nov-15 02:00N 70°16' E 023°24'0 0.0
2017-Nov-15 01:30N 70°16' E 023°24'0 0.0
2017-Nov-15 01:00N 70°16' E 023°24'0 0.0
2017-Nov-15 00:30N 70°16' E 023°24'0 0.0
2017-Nov-15 00:00N 70°16' E 023°24'0 0.0
2017-Nov-14 23:30N 70°16' E 023°24'0 0.0
2017-Nov-14 23:00N 70°16' E 023°24'0 0.0
2017-Nov-14 22:30N 70°16' E 023°24'0 0.0
2017-Nov-14 22:00N 70°16' E 023°24'0 0.0
2017-Nov-14 21:27N 70°16' E 023°24'0 0.0
2017-Nov-14 20:57N 70°16' E 023°24'0 0.0
2017-Nov-14 20:30N 70°16' E 023°24'0 0.0
2017-Nov-14 20:00N 70°16' E 023°24'0 0.0
2017-Nov-14 19:30N 70°16' E 023°24'0 0.0
2017-Nov-14 19:00N 70°16' E 023°24'0 0.0
2017-Nov-14 18:30N 70°16' E 023°24'0 0.0
2017-Nov-14 18:00N 70°16' E 023°24'0 0.0
2017-Nov-14 17:30N 70°16' E 023°24'0 0.0
2017-Nov-14 17:00N 70°16' E 023°24'0 0.0
2017-Nov-14 16:24N 70°16' E 023°24'0 0.0
2017-Nov-14 16:00N 70°16' E 023°24'0 0.0
2017-Nov-14 15:30N 70°16' E 023°24'0 0.0
2017-Nov-14 15:00N 70°16' E 023°24'0 0.0
2017-Nov-14 14:30N 70°16' E 023°24'0 0.0
2017-Nov-14 14:00N 70°16' E 023°24'0 0.0
2017-Nov-14 13:30N 70°16' E 023°24'0 0.0
2017-Nov-14 13:00N 70°16' E 023°24'0 0.0
2017-Nov-14 12:30N 70°16' E 023°24'0 0.0
2017-Nov-14 12:00N 70°16' E 023°24'1 1.0
2017-Nov-14 11:30N 70°16' E 023°23'1 1.1
2017-Nov-14 10:59N 70°16' E 023°24'0 0.0
2017-Nov-14 10:29N 70°16' E 023°24'0 0.0
2017-Nov-14 09:59N 70°16' E 023°24'0 0.0
2017-Nov-14 09:29N 70°16' E 023°24'0 0.0
2017-Nov-14 08:59N 70°16' E 023°24'0 0.0
2017-Nov-14 08:29N 70°16' E 023°24'0 0.0
2017-Nov-14 07:59N 70°16' E 023°24'0 0.0
2017-Nov-14 07:29N 70°16' E 023°24'0 0.0
2017-Nov-14 06:59N 70°16' E 023°24'0 0.0
2017-Nov-14 06:29N 70°16' E 023°24'0 0.0
2017-Nov-14 05:59N 70°16' E 023°24'0 0.0
2017-Nov-14 05:29N 70°16' E 023°24'0 0.0
2017-Nov-14 04:59N 70°16' E 023°24'0 0.0
2017-Nov-14 04:29N 70°16' E 023°24'0 0.0
2017-Nov-14 03:59N 70°16' E 023°24'0 0.0
2017-Nov-14 03:29N 70°16' E 023°24'0 0.0
2017-Nov-14 02:59N 70°16' E 023°24'0 0.0
2017-Nov-14 02:29N 70°16' E 023°24'0 0.0
2017-Nov-14 01:59N 70°16' E 023°24'0 0.0
2017-Nov-14 01:29N 70°16' E 023°24'0 0.0
2017-Nov-14 00:59N 70°16' E 023°24'0 0.0
2017-Nov-14 00:29N 70°16' E 023°24'0 0.0
2017-Nov-13 23:59N 70°16' E 023°24'0 0.0
2017-Nov-13 23:29N 70°16' E 023°24'0 0.0
2017-Nov-13 22:59N 70°16' E 023°24'0 0.0
2017-Nov-13 22:28N 70°16' E 023°24'0 0.0
2017-Nov-13 21:58N 70°16' E 023°24'0 0.0
2017-Nov-13 01:58N 70°16' E 023°24'0 0.0
2017-Nov-13 01:28N 70°16' E 023°24'0 0.0
2017-Nov-13 00:58N 70°16' E 023°24'0 0.0
2017-Nov-13 00:28N 70°16' E 023°24'0 0.0
2017-Nov-12 23:58N 70°16' E 023°24'0 0.0
2017-Nov-12 23:28N 70°16' E 023°24'0 0.0
2017-Nov-12 22:58N 70°16' E 023°24'0 0.0
2017-Nov-12 22:28N 70°16' E 023°24'0 0.0
2017-Nov-12 21:58N 70°16' E 023°24'0 0.0
2017-Nov-12 21:28N 70°16' E 023°24'0 0.0
2017-Nov-12 20:58N 70°16' E 023°24'0 0.0
2017-Nov-12 20:28N 70°16' E 023°24'0 0.0
2017-Nov-12 19:58N 70°16' E 023°24'0 0.0
2017-Nov-12 19:28N 70°16' E 023°24'0 0.0
2017-Nov-12 18:58N 70°16' E 023°24'0 0.0
2017-Nov-12 18:28N 70°16' E 023°24'0 0.0
2017-Nov-12 17:58N 70°16' E 023°24'0 0.0
2017-Nov-12 17:28N 70°16' E 023°24'0 0.0
2017-Nov-12 16:58N 70°16' E 023°24'0 0.0
2017-Nov-12 16:28N 70°16' E 023°24'0 0.0
2017-Nov-12 15:58N 70°16' E 023°24'0 0.0
2017-Nov-12 15:28N 70°16' E 023°24'0 0.0
2017-Nov-12 14:58N 70°16' E 023°24'0 0.0
2017-Nov-12 14:28N 70°16' E 023°24'0 0.0
2017-Nov-12 13:58N 70°16' E 023°24'0 0.0
2017-Nov-12 13:28N 70°16' E 023°24'0 0.0
2017-Nov-12 12:58N 70°16' E 023°24'0 0.0
2017-Nov-12 12:28N 70°16' E 023°24'0 0.0
2017-Nov-12 11:58N 70°16' E 023°24'0 0.0
2017-Nov-12 11:28N 70°16' E 023°24'0 0.0
2017-Nov-12 10:58N 70°16' E 023°24'0 0.0
2017-Nov-12 10:29N 70°16' E 023°24'0 0.0
2017-Nov-12 09:59N 70°16' E 023°24'0 0.0
2017-Nov-12 09:29N 70°16' E 023°24'1 1.0
2017-Nov-12 08:58N 70°16' E 023°23'1 1.1
2017-Nov-12 08:28N 70°16' E 023°24'0 0.0
2017-Nov-12 07:58N 70°16' E 023°24'0 0.0
2017-Nov-12 07:28N 70°16' E 023°24'0 0.0
2017-Nov-12 06:58N 70°16' E 023°24'0 0.0
2017-Nov-12 06:28N 70°16' E 023°24'0 0.0
2017-Nov-12 05:58N 70°16' E 023°24'0 0.0
2017-Nov-12 05:28N 70°16' E 023°24'0 0.0
2017-Nov-12 04:58N 70°16' E 023°24'0 0.0
2017-Nov-12 04:28N 70°16' E 023°24'0 0.0
2017-Nov-12 03:58N 70°16' E 023°24'0 0.0
2017-Nov-12 03:28N 70°16' E 023°24'0 0.0
2017-Nov-12 02:58N 70°16' E 023°24'0 0.0
2017-Nov-12 02:28N 70°16' E 023°24'0 0.0
2017-Nov-12 01:58N 70°16' E 023°24'0 0.0
2017-Nov-12 01:28N 70°16' E 023°24'0 0.0
2017-Nov-12 00:58N 70°16' E 023°24'0 0.0
2017-Nov-12 00:28N 70°16' E 023°24'0 0.0
2017-Nov-11 23:58N 70°16' E 023°24'0 0.0
2017-Nov-11 23:28N 70°16' E 023°24'0 0.0
2017-Nov-11 22:58N 70°16' E 023°24'0 0.0
2017-Nov-11 22:27N 70°16' E 023°24'0 0.0
2017-Nov-11 21:59N 70°16' E 023°24'0 0.0
2017-Nov-11 21:29N 70°16' E 023°24'0 0.0
2017-Nov-11 20:58N 70°16' E 023°24'0 0.0
2017-Nov-11 20:28N 70°16' E 023°24'0 0.0
2017-Nov-11 19:59N 70°16' E 023°24'0 0.0
2017-Nov-11 19:29N 70°16' E 023°24'0 0.0
2017-Nov-11 18:58N 70°16' E 023°24'0 0.0
2017-Nov-11 18:28N 70°16' E 023°24'0 0.0
2017-Nov-11 17:58N 70°16' E 023°24'0 0.0
2017-Nov-11 17:28N 70°16' E 023°24'0 0.0
2017-Nov-11 16:58N 70°16' E 023°24'0 0.0
2017-Nov-11 16:28N 70°16' E 023°24'0 0.0
2017-Nov-11 15:59N 70°16' E 023°24'0 0.0
2017-Nov-11 15:28N 70°16' E 023°24'0 0.0
2017-Nov-11 14:58N 70°16' E 023°24'0 0.0
2017-Nov-11 14:29N 70°16' E 023°24'0 0.0
2017-Nov-11 13:59N 70°16' E 023°24'0 0.0
2017-Nov-11 13:28N 70°16' E 023°24'0 0.0
2017-Nov-11 12:58N 70°16' E 023°24'0 0.0
2017-Nov-11 12:28N 70°16' E 023°24'0 0.0
2017-Nov-11 11:59N 70°16' E 023°24'0 0.0
2017-Nov-11 11:29N 70°16' E 023°24'0 0.0
2017-Nov-11 10:58N 70°16' E 023°24'0 0.0
2017-Nov-11 10:29N 70°16' E 023°24'0 0.0
2017-Nov-11 09:59N 70°16' E 023°24'0 0.0
2017-Nov-11 09:28N 70°16' E 023°24'0 0.0
2017-Nov-11 08:58N 70°16' E 023°24'0 0.0
2017-Nov-11 08:28N 70°16' E 023°24'0 0.0
2017-Nov-11 07:58N 70°16' E 023°24'0 0.0
2017-Nov-11 07:28N 70°16' E 023°24'0 0.0
2017-Nov-11 06:58N 70°16' E 023°24'0 0.0
2017-Nov-11 06:28N 70°16' E 023°24'0 0.0
2017-Nov-11 05:58N 70°16' E 023°24'0 0.0
2017-Nov-11 05:28N 70°16' E 023°24'0 0.0
2017-Nov-11 04:58N 70°16' E 023°24'0 0.0
2017-Nov-11 04:28N 70°16' E 023°24'0 0.0
2017-Nov-11 03:58N 70°16' E 023°24'0 0.0
2017-Nov-11 03:28N 70°16' E 023°24'0 0.0
2017-Nov-11 02:58N 70°16' E 023°24'0 0.0
2017-Nov-11 02:28N 70°16' E 023°24'0 0.0
2017-Nov-11 01:58N 70°16' E 023°24'0 0.0
2017-Nov-11 01:28N 70°16' E 023°24'0 0.0
2017-Nov-11 00:58N 70°16' E 023°24'0 0.0
2017-Nov-11 00:28N 70°16' E 023°24'0 0.0
2017-Nov-10 23:58N 70°16' E 023°24'0 0.0
2017-Nov-10 23:28N 70°16' E 023°24'0 0.0
2017-Nov-10 22:58N 70°16' E 023°24'0 0.0
2017-Nov-10 22:28N 70°16' E 023°24'0 0.0
2017-Nov-10 21:56N 70°16' E 023°24'0 0.0
2017-Nov-10 21:29N 70°16' E 023°24'0 0.0
2017-Nov-10 20:59N 70°16' E 023°24'0 0.0
2017-Nov-10 20:26N 70°16' E 023°24'0 0.0
2017-Nov-10 19:59N 70°16' E 023°24'0 0.0
2017-Nov-10 19:26N 70°16' E 023°24'0 0.0
2017-Nov-10 18:56N 70°16' E 023°24'0 0.0
2017-Nov-10 18:26N 70°16' E 023°24'0 0.0
2017-Nov-10 17:59N 70°16' E 023°24'0 0.0
2017-Nov-10 17:26N 70°16' E 023°24'0 0.0
2017-Nov-10 16:56N 70°16' E 023°24'0 0.0
2017-Nov-10 16:29N 70°16' E 023°24'0 0.0
2017-Nov-10 15:59N 70°16' E 023°24'0 0.0
2017-Nov-10 15:26N 70°16' E 023°24'0 0.0
2017-Nov-10 14:59N 70°16' E 023°24'0 0.0
2017-Nov-10 14:29N 70°16' E 023°24'0 0.0
2017-Nov-10 13:56N 70°16' E 023°24'0 0.0
2017-Nov-10 13:26N 70°16' E 023°24'0 0.0
2017-Nov-10 12:56N 70°16' E 023°24'0 0.0
2017-Nov-10 12:29N 70°16' E 023°24'0 0.0
2017-Nov-10 11:59N 70°16' E 023°24'0 0.0
2017-Nov-10 11:29N 70°16' E 023°24'0 0.0
2017-Nov-10 10:56N 70°16' E 023°24'0 0.0
2017-Nov-10 10:26N 70°16' E 023°24'0 0.0
2017-Nov-10 09:59N 70°16' E 023°24'0 0.0
2017-Nov-10 09:26N 70°16' E 023°24'0 0.0
2017-Nov-10 08:59N 70°16' E 023°24'0 0.0
2017-Nov-10 08:29N 70°16' E 023°24'0 0.0
2017-Nov-10 07:56N 70°16' E 023°24'0 0.0
2017-Nov-10 07:29N 70°16' E 023°24'0 0.0
2017-Nov-10 07:00N 70°16' E 023°24'0 0.0
2017-Nov-10 06:30N 70°16' E 023°24'0 0.0
2017-Nov-10 06:00N 70°16' E 023°24'0 0.0
2017-Nov-10 05:30N 70°16' E 023°24'0 0.0
2017-Nov-10 05:00N 70°16' E 023°24'0 0.0
2017-Nov-10 04:27N 70°16' E 023°24'0 0.0
2017-Nov-10 04:00N 70°16' E 023°24'0 0.0
2017-Nov-10 03:30N 70°16' E 023°24'0 0.0
2017-Nov-10 03:00N 70°16' E 023°24'0 0.0
2017-Nov-10 02:30N 70°16' E 023°24'0 0.0
2017-Nov-10 02:00N 70°16' E 023°24'0 0.0
2017-Nov-10 01:30N 70°16' E 023°24'0 0.0
2017-Nov-10 01:00N 70°16' E 023°24'0 0.0
2017-Nov-10 00:30N 70°16' E 023°24'0 0.0
2017-Nov-10 00:00N 70°16' E 023°24'0 0.0
2017-Nov-09 23:30N 70°16' E 023°24'0 0.0
2017-Nov-09 23:00N 70°16' E 023°24'0 0.0
2017-Nov-09 22:30N 70°16' E 023°24'0 0.0
2017-Nov-09 21:58N 70°16' E 023°24'0 0.0
2017-Nov-09 21:22N 70°16' E 023°24'0 0.0
2017-Nov-09 20:58N 70°16' E 023°24'0 0.0
2017-Nov-09 20:28N 70°16' E 023°24'0 0.0
2017-Nov-09 19:58N 70°16' E 023°24'0 0.0
2017-Nov-09 19:28N 70°16' E 023°24'0 0.0
2017-Nov-09 18:58N 70°16' E 023°24'0 0.0
2017-Nov-09 18:28N 70°16' E 023°24'0 0.0
2017-Nov-09 17:58N 70°16' E 023°24'0 0.0
2017-Nov-09 17:28N 70°16' E 023°24'0 0.0
2017-Nov-09 16:58N 70°16' E 023°24'2 4.0
2017-Nov-09 16:30N 70°18' E 023°23'4 7.6
2017-Nov-09 15:59N 70°21' E 023°29'4 7.3
2017-Nov-09 15:30N 70°24' E 023°35'3 6.8
2017-Nov-09 15:00N 70°27' E 023°39'4 7.6
2017-Nov-09 14:30N 70°31' E 023°38'4 7.5
2017-Nov-09 14:00N 70°35' E 023°37'4 7.4
2017-Nov-09 13:30N 70°38' E 023°37'2 4.4
2017-Nov-09 13:00N 70°40' E 023°41'0 0.0
2017-Nov-09 12:30N 70°40' E 023°41'0 0.0
2017-Nov-09 12:00N 70°40' E 023°41'0 0.0
2017-Nov-09 11:30N 70°40' E 023°41'0 0.0
2017-Nov-09 11:00N 70°40' E 023°41'0 0.0
2017-Nov-09 10:30N 70°40' E 023°41'0 0.0
2017-Nov-09 10:00N 70°40' E 023°41'0 0.0
2017-Nov-09 09:30N 70°40' E 023°41'0 0.0
2017-Nov-09 09:00N 70°40' E 023°41'0 0.0
2017-Nov-09 08:30N 70°40' E 023°41'0 0.0
2017-Nov-09 08:00N 70°40' E 023°41'0 0.0
2017-Nov-09 07:30N 70°40' E 023°41'0 0.0
2017-Nov-09 07:00N 70°40' E 023°41'0 0.0
2017-Nov-09 06:30N 70°40' E 023°41'0 0.0
2017-Nov-09 06:00N 70°40' E 023°41'0 0.0
2017-Nov-09 05:30N 70°40' E 023°41'0 0.0
2017-Nov-09 05:00N 70°40' E 023°41'0 0.0
2017-Nov-09 04:30N 70°40' E 023°41'0 0.0
2017-Nov-09 04:00N 70°40' E 023°41'0 0.0
2017-Nov-09 03:30N 70°40' E 023°41'0 0.0
2017-Nov-09 03:00N 70°40' E 023°41'0 0.0
2017-Nov-09 02:30N 70°40' E 023°41'0 0.0
2017-Nov-09 02:00N 70°40' E 023°41'0 0.0
2017-Nov-09 01:30N 70°40' E 023°41'0 0.0
2017-Nov-09 01:00N 70°40' E 023°41'0 0.0
2017-Nov-09 00:30N 70°40' E 023°41'0 0.0
2017-Nov-09 00:00N 70°40' E 023°41'0 0.0
2017-Nov-08 23:30N 70°40' E 023°41'0 0.0
2017-Nov-08 23:00N 70°40' E 023°41'0 0.0
2017-Nov-08 22:30N 70°40' E 023°41'0 0.0
2017-Nov-08 22:00N 70°40' E 023°41'2 3.6
2017-Nov-08 21:30N 70°40' E 023°36'4 7.2
2017-Nov-08 21:00N 70°44' E 023°37'4 8.3
2017-Nov-08 20:29N 70°47' E 023°45'4 8.2
2017-Nov-08 19:59N 70°49' E 023°55'4 8.4
2017-Nov-08 19:29N 70°52' E 024°05'4 8.0
2017-Nov-08 19:00N 70°54' E 024°14'4 7.5
2017-Nov-08 18:30N 70°57' E 024°24'4 7.7
2017-Nov-08 17:59N 70°59' E 024°33'2 4.7
2017-Nov-08 17:30N 70°60' E 024°40'0 0.0
2017-Nov-08 17:00N 70°60' E 024°40'0 0.0
2017-Nov-08 16:30N 70°60' E 024°40'0 0.0
2017-Nov-08 16:00N 70°60' E 024°40'0 0.0
2017-Nov-08 15:30N 70°60' E 024°40'0 0.0
2017-Nov-08 15:00N 70°60' E 024°40'0 0.5
2017-Nov-08 14:30N 70°60' E 024°40'2 4.5
2017-Nov-08 13:59N 70°59' E 024°34'2 3.3
2017-Nov-08 13:30N 70°57' E 024°35'1 1.4
2017-Nov-08 12:59N 70°57' E 024°32'0 0.5
2017-Nov-08 12:30N 70°58' E 024°32'0 0.1
2017-Nov-08 12:00N 70°58' E 024°32'0 0.8
2017-Nov-08 11:30N 70°58' E 024°33'0 0.2
2017-Nov-08 11:00N 70°58' E 024°33'1 1.3
2017-Nov-08 10:29N 70°58' E 024°35'0 0.9
2017-Nov-08 10:00N 70°57' E 024°34'0 0.5
2017-Nov-08 09:30N 70°57' E 024°33'0 0.2
2017-Nov-08 09:00N 70°58' E 024°33'0 0.1
2017-Nov-08 08:30N 70°57' E 024°33'1 1.6
2017-Nov-08 07:58N 70°57' E 024°36'2 3.5
2017-Nov-08 07:30N 70°59' E 024°33'2 4.5
2017-Nov-08 07:00N 70°60' E 024°40'0 0.0
2017-Nov-08 06:30N 70°60' E 024°40'0 0.0
2017-Nov-08 06:00N 70°60' E 024°40'0 0.0
2017-Nov-08 05:30N 70°60' E 024°40'0 0.0
2017-Nov-08 05:00N 70°60' E 024°40'0 0.0
2017-Nov-08 04:30N 70°60' E 024°40'0 0.0
2017-Nov-08 04:00N 70°60' E 024°40'0 0.0
2017-Nov-08 03:30N 70°60' E 024°40'0 0.0
2017-Nov-08 03:00N 70°60' E 024°40'0 0.0
2017-Nov-08 02:27N 70°60' E 024°40'0 0.0
2017-Nov-08 02:00N 70°60' E 024°40'0 0.0
2017-Nov-08 01:30N 70°60' E 024°40'0 0.0
2017-Nov-08 01:00N 70°60' E 024°40'0 0.0
2017-Nov-08 00:30N 70°60' E 024°40'0 0.0
2017-Nov-08 00:00N 70°60' E 024°40'0 0.0
2017-Nov-07 23:30N 70°60' E 024°40'0 0.0
2017-Nov-07 23:00N 70°60' E 024°40'0 0.0
2017-Nov-07 22:30N 70°60' E 024°40'0 0.0
2017-Nov-07 22:00N 70°60' E 024°40'0 0.0
2017-Nov-07 21:30N 70°60' E 024°40'0 0.0
2017-Nov-07 21:00N 70°60' E 024°40'0 0.0
2017-Nov-07 20:30N 70°60' E 024°40'0 0.0
2017-Nov-07 20:00N 70°60' E 024°40'0 0.0
2017-Nov-07 19:30N 70°60' E 024°40'0 0.0
2017-Nov-07 19:00N 70°60' E 024°40'0 0.0
2017-Nov-07 18:30N 70°60' E 024°40'0 0.0
2017-Nov-07 18:00N 70°60' E 024°40'0 0.0
2017-Nov-07 17:30N 70°60' E 024°40'0 0.0
2017-Nov-07 17:00N 70°60' E 024°40'2 3.9
2017-Nov-07 16:30N 70°59' E 024°34'2 3.1
2017-Nov-07 15:59N 70°57' E 024°35'1 1.3
2017-Nov-07 15:29N 70°57' E 024°33'0 0.9
2017-Nov-07 15:00N 70°58' E 024°32'0 0.2
2017-Nov-07 14:30N 70°58' E 024°33'0 0.4
2017-Nov-07 13:59N 70°58' E 024°33'0 0.4
2017-Nov-07 13:30N 70°57' E 024°34'0 0.4
2017-Nov-07 13:00N 70°58' E 024°34'0 0.3
2017-Nov-07 12:28N 70°57' E 024°34'1 1.3
2017-Nov-07 12:00N 70°57' E 024°32'1 1.3
2017-Nov-07 11:30N 70°57' E 024°31'1 1.4
2017-Nov-07 10:59N 70°57' E 024°33'0 0.2
2017-Nov-07 10:30N 70°57' E 024°33'0 0.5
2017-Nov-07 09:59N 70°57' E 024°34'1 2.4
2017-Nov-07 09:30N 70°58' E 024°31'3 6.2
2017-Nov-07 09:00N 70°60' E 024°40'0 0.2
2017-Nov-07 08:28N 70°60' E 024°40'0 0.0
2017-Nov-07 07:58N 70°60' E 024°40'0 0.0
2017-Nov-07 07:28N 70°60' E 024°40'0 0.0
2017-Nov-07 06:58N 70°60' E 024°40'1 2.4
2017-Nov-07 06:30N 70°59' E 024°36'4 8.2
2017-Nov-07 06:00N 70°57' E 024°27'4 8.0
2017-Nov-07 05:30N 70°53' E 024°21'4 8.3
2017-Nov-07 04:59N 70°50' E 024°13'4 8.2
2017-Nov-07 04:30N 70°46' E 024°13'4 8.4
2017-Nov-07 04:00N 70°42' E 024°12'4 7.9
2017-Nov-07 03:30N 70°38' E 024°11'4 7.9
2017-Nov-07 03:00N 70°34' E 024°06'5 8.4
2017-Nov-07 02:21N 70°30' E 023°55'3 9.1
2017-Nov-07 02:00N 70°29' E 023°47'5 9.0
2017-Nov-07 01:29N 70°25' E 023°38'5 9.2
2017-Nov-07 01:00N 70°22' E 023°29'4 8.6
2017-Nov-07 00:29N 70°18' E 023°23'2 3.8
2017-Nov-07 00:00N 70°16' E 023°24'0 0.0
2017-Nov-06 23:30N 70°16' E 023°24'0 0.0
2017-Nov-06 23:00N 70°16' E 023°24'0 0.0
2017-Nov-06 22:30N 70°16' E 023°24'0 0.0
2017-Nov-06 22:00N 70°16' E 023°24'0 0.0
2017-Nov-06 21:30N 70°16' E 023°24'0 0.0
2017-Nov-06 21:00N 70°16' E 023°24'0 0.0
2017-Nov-06 20:30N 70°16' E 023°24'  

Dump ship's entire track history